createdAt,value
2023-05-11T00:04:01.092Z,8.80
2023-05-11T00:10:03.472Z,8.70
2023-05-11T00:16:05.855Z,8.60
2023-05-11T00:22:08.192Z,8.50
2023-05-11T00:28:10.983Z,8.40
2023-05-11T00:34:13.179Z,8.20
2023-05-11T00:40:16.064Z,8.10
2023-05-11T00:46:19.464Z,8.00
2023-05-11T00:52:22.509Z,8.00
2023-05-11T00:58:25.606Z,7.90
2023-05-11T01:04:27.995Z,7.90
2023-05-11T01:10:34.803Z,7.90
2023-05-11T01:16:41.033Z,7.80
2023-05-11T01:23:08.572Z,7.70
2023-05-11T01:29:46.417Z,7.60
2023-05-11T01:35:54.138Z,7.60
2023-05-11T01:41:58.809Z,7.50
2023-05-11T01:48:04.902Z,7.40
2023-05-11T01:54:09.094Z,7.30
2023-05-11T02:00:16.868Z,7.20
2023-05-11T02:06:21.789Z,7.00
2023-05-11T02:12:26.172Z,6.90
2023-05-11T02:18:29.764Z,6.70
2023-05-11T02:24:34.118Z,6.70
2023-05-11T02:30:45.047Z,6.60
2023-05-11T02:36:49.857Z,6.50
2023-05-11T02:42:59.031Z,6.50
2023-05-11T02:49:04.370Z,6.40
2023-05-11T02:55:07.612Z,6.40
2023-05-11T03:01:10.817Z,6.30
2023-05-11T03:07:13.958Z,6.40
2023-05-11T03:13:17.186Z,6.40
2023-05-11T03:19:20.120Z,6.30
2023-05-11T03:25:25.308Z,6.40
2023-05-11T03:31:27.887Z,6.50
2023-05-11T03:37:32.290Z,6.60
2023-05-11T03:43:37.110Z,6.80
2023-05-11T03:49:39.881Z,7.00
2023-05-11T03:55:42.420Z,7.30
2023-05-11T04:01:44.979Z,7.40
2023-05-11T04:07:47.664Z,7.70
2023-05-11T04:13:49.818Z,8.00
2023-05-11T04:19:52.542Z,8.30
2023-05-11T04:25:55.261Z,8.60
2023-05-11T04:31:57.764Z,8.90
2023-05-11T04:38:03.345Z,9.10
2023-05-11T04:44:06.188Z,9.20
2023-05-11T04:50:09.132Z,9.70
2023-05-11T04:56:13.382Z,10.10
2023-05-11T05:02:15.982Z,10.40
2023-05-11T05:08:19.071Z,10.80
2023-05-11T05:14:21.478Z,11.20
2023-05-11T05:20:24.042Z,11.30
2023-05-11T05:26:26.789Z,11.60
2023-05-11T05:32:29.894Z,12.00
2023-05-11T05:38:32.212Z,12.10
2023-05-11T05:44:34.611Z,13.40
2023-05-11T05:50:38.442Z,18.70
2023-05-11T05:56:41.365Z,20.80
2023-05-11T06:02:43.980Z,21.60
2023-05-11T06:08:56.870Z,22.60
2023-05-11T06:14:59.120Z,21.80
2023-05-11T06:21:02.118Z,21.80
2023-05-11T06:27:06.914Z,22.20
2023-05-11T06:33:10.359Z,21.70
2023-05-11T06:39:14.504Z,23.20
2023-05-11T06:45:17.122Z,23.00
2023-05-11T06:51:21.481Z,22.80
2023-05-11T06:57:27.397Z,22.30
2023-05-11T07:03:29.580Z,22.10
2023-05-11T07:09:32.216Z,23.00
2023-05-11T07:15:34.511Z,24.80
2023-05-11T07:21:37.262Z,23.50
2023-05-11T07:27:39.627Z,23.00
2023-05-11T07:33:41.793Z,23.20
2023-05-11T07:39:44.000Z,24.10
2023-05-11T07:45:46.530Z,24.20
2023-05-11T07:51:48.960Z,24.20
2023-05-11T07:57:55.156Z,24.20
2023-05-11T08:03:57.609Z,24.00
2023-05-11T08:09:59.986Z,23.50
2023-05-11T08:16:02.427Z,24.30
2023-05-11T08:22:05.193Z,23.60
2023-05-11T08:28:07.685Z,24.50
2023-05-11T08:34:18.641Z,23.80
2023-05-11T08:40:23.587Z,24.60
2023-05-11T08:46:30.389Z,24.80
2023-05-11T08:52:32.866Z,25.20
2023-05-11T08:58:37.714Z,25.60
2023-05-11T09:04:40.150Z,25.30
2023-05-11T09:10:43.827Z,24.50
2023-05-11T09:16:46.195Z,23.60
2023-05-11T09:22:48.975Z,24.20
2023-05-11T09:29:02.996Z,23.90
2023-05-11T09:35:21.964Z,23.10
2023-05-11T09:41:24.507Z,19.80
2023-05-11T09:47:27.837Z,20.90
2023-05-11T09:53:38.952Z,20.50
2023-05-11T09:59:42.381Z,21.40
2023-05-11T10:06:00.500Z,21.30
2023-05-11T10:12:03.908Z,21.70
2023-05-11T10:18:07.390Z,22.30
2023-05-11T10:24:11.035Z,21.40
2023-05-11T10:30:13.659Z,21.90
2023-05-11T10:36:19.243Z,20.90
2023-05-11T10:42:57.635Z,21.60
2023-05-11T10:49:10.349Z,19.70
2023-05-11T10:55:38.337Z,21.50
2023-05-11T11:01:42.368Z,22.10
2023-05-11T11:08:04.412Z,21.70
2023-05-11T11:14:09.727Z,21.40
2023-05-11T11:20:48.181Z,19.80
2023-05-11T11:26:50.850Z,18.90
2023-05-11T11:32:55.163Z,19.60
2023-05-11T11:39:01.734Z,20.20
2023-05-11T11:45:27.873Z,19.40
2023-05-11T11:51:33.946Z,19.00
2023-05-11T11:57:36.069Z,19.10
2023-05-11T12:03:39.000Z,18.70
2023-05-11T12:09:41.504Z,20.60
2023-05-11T12:15:44.032Z,21.20
2023-05-11T12:21:46.178Z,21.50
2023-05-11T12:27:58.861Z,19.30
2023-05-11T12:34:01.479Z,19.30
2023-05-11T12:40:03.764Z,23.70
2023-05-11T12:46:06.470Z,22.40
2023-05-11T12:52:10.520Z,19.10
2023-05-11T12:58:17.406Z,18.90
2023-05-11T13:04:29.429Z,20.70
2023-05-11T13:10:32.392Z,19.30
2023-05-11T13:16:35.019Z,19.40
2023-05-11T13:22:37.674Z,20.30
2023-05-11T13:28:39.889Z,19.90
2023-05-11T13:34:42.207Z,19.50
2023-05-11T13:40:44.567Z,19.50
2023-05-11T13:46:46.978Z,18.70
2023-05-11T13:52:49.265Z,18.80
2023-05-11T13:58:51.872Z,19.60
2023-05-11T14:04:54.122Z,19.30
2023-05-11T14:10:56.833Z,18.70
2023-05-11T14:16:59.289Z,18.80
2023-05-11T14:23:01.622Z,18.40
2023-05-11T14:29:03.927Z,18.50
2023-05-11T14:35:07.017Z,18.10
2023-05-11T14:41:10.085Z,17.90
2023-05-11T14:47:12.261Z,18.10
2023-05-11T14:53:14.472Z,18.30
2023-05-11T14:59:16.933Z,18.20
2023-05-11T15:05:19.334Z,18.10
2023-05-11T15:11:22.475Z,17.70
2023-05-11T15:17:25.185Z,17.50
2023-05-11T15:23:27.753Z,17.50
2023-05-11T15:29:30.220Z,17.50
2023-05-11T15:35:34.401Z,17.40
2023-05-11T15:41:36.777Z,17.40
2023-05-11T15:47:39.150Z,17.40
2023-05-11T15:53:41.306Z,17.30
2023-05-11T15:59:43.427Z,17.20
2023-05-11T16:05:46.475Z,17.10
2023-05-11T16:11:49.452Z,16.90
2023-05-11T16:17:52.030Z,16.70
2023-05-11T16:23:54.623Z,16.60
2023-05-11T16:29:56.737Z,16.60
2023-05-11T16:35:59.035Z,16.40
2023-05-11T16:42:01.296Z,16.20
2023-05-11T16:48:03.596Z,16.00
2023-05-11T16:54:05.635Z,15.90
2023-05-11T17:00:09.323Z,15.80
2023-05-11T17:06:14.806Z,15.60
2023-05-11T17:12:19.054Z,15.40
2023-05-11T17:18:21.647Z,15.30
2023-05-11T17:24:23.742Z,15.10
2023-05-11T17:30:40.023Z,14.90
2023-05-11T17:36:48.960Z,14.80
2023-05-11T17:42:51.352Z,14.60
2023-05-11T17:48:54.496Z,14.50
2023-05-11T17:54:56.904Z,14.40
2023-05-11T18:00:59.326Z,14.20
2023-05-11T18:07:01.917Z,14.10
2023-05-11T18:13:04.626Z,14.00
2023-05-11T18:19:07.146Z,14.00
2023-05-11T18:25:09.808Z,13.80
2023-05-11T18:31:12.648Z,13.70
2023-05-11T18:37:16.471Z,13.60
2023-05-11T18:43:18.755Z,13.40
2023-05-11T18:49:21.116Z,13.20
2023-05-11T18:55:23.587Z,13.10
2023-05-11T19:01:36.189Z,13.00
2023-05-11T19:07:42.780Z,12.80
2023-05-11T19:13:45.333Z,12.80
2023-05-11T19:19:47.613Z,12.60
2023-05-11T19:25:50.780Z,12.50
2023-05-11T19:31:53.687Z,12.30
2023-05-11T19:37:55.929Z,12.20
2023-05-11T19:43:58.300Z,12.10
2023-05-11T19:50:00.535Z,12.00
2023-05-11T19:56:02.678Z,11.90
2023-05-11T20:02:05.240Z,11.90
2023-05-11T20:08:07.936Z,11.80
2023-05-11T20:14:10.239Z,11.70
2023-05-11T20:20:12.718Z,11.60
2023-05-11T20:26:14.956Z,11.60
2023-05-11T20:32:17.920Z,11.50
2023-05-11T20:38:20.035Z,11.40
2023-05-11T20:44:22.170Z,11.30
2023-05-11T20:50:24.938Z,11.20
2023-05-11T20:56:27.094Z,11.10
2023-05-11T21:02:29.310Z,11.00
2023-05-11T21:08:31.765Z,10.80
2023-05-11T21:14:34.200Z,10.70
2023-05-11T21:20:36.564Z,10.60
2023-05-11T21:26:38.926Z,10.40
2023-05-11T21:32:41.237Z,10.30
2023-05-11T21:38:43.703Z,10.20
2023-05-11T21:44:45.905Z,10.10
2023-05-11T21:50:55.663Z,10.00
2023-05-11T21:56:57.790Z,10.00
2023-05-11T22:03:00.010Z,9.90
2023-05-11T22:09:02.898Z,9.80
2023-05-11T22:15:08.681Z,9.70
2023-05-11T22:21:11.056Z,9.60
2023-05-11T22:27:15.996Z,9.60
2023-05-11T22:33:18.194Z,9.50
2023-05-11T22:39:21.345Z,9.40
2023-05-11T22:45:23.611Z,9.30
2023-05-11T22:51:25.758Z,9.30
2023-05-11T22:57:28.108Z,9.20
2023-05-11T23:03:30.717Z,9.20
2023-05-11T23:09:34.335Z,9.10
2023-05-11T23:15:36.779Z,9.10
2023-05-11T23:21:38.919Z,9.00
2023-05-11T23:27:41.223Z,8.90
2023-05-11T23:33:43.533Z,8.80
2023-05-11T23:39:45.966Z,8.70
2023-05-11T23:45:48.123Z,8.70
2023-05-11T23:51:50.476Z,8.60
2023-05-11T23:57:52.817Z,8.60
